sensor_id;sensor_type;location;lat;lon;timestamp;pressure;altitude;pressure_sealevel;temperature;humidity
15750;BME280;7976;52.526;13.326;2023-01-26T00:00:47;102004.25;;;1.85;95.19
15750;BME280;7976;52.526;13.326;2023-01-26T00:03:15;102002.56;;;1.85;95.01
15750;BME280;7976;52.526;13.326;2023-01-26T00:05:42;101998.22;;;1.84;94.80
15750;BME280;7976;52.526;13.326;2023-01-26T00:08:09;101997.38;;;1.85;94.65
15750;BME280;7976;52.526;13.326;2023-01-26T00:10:40;102000.00;;;1.87;94.86
15750;BME280;7976;52.526;13.326;2023-01-26T00:13:16;101989.63;;;1.84;94.58
15750;BME280;7976;52.526;13.326;2023-01-26T00:15:44;101990.38;;;1.78;94.50
15750;BME280;7976;52.526;13.326;2023-01-26T00:18:11;101988.56;;;1.74;94.76
15750;BME280;7976;52.526;13.326;2023-01-26T00:20:38;101987.66;;;1.71;94.54
15750;BME280;7976;52.526;13.326;2023-01-26T00:23:05;101978.97;;;1.66;94.62
15750;BME280;7976;52.526;13.326;2023-01-26T00:25:32;101980.69;;;1.67;94.95
15750;BME280;7976;52.526;13.326;2023-01-26T00:28:00;101979.03;;;1.69;94.93
15750;BME280;7976;52.526;13.326;2023-01-26T00:30:27;101966.06;;;1.66;94.79
15750;BME280;7976;52.526;13.326;2023-01-26T00:32:53;101961.78;;;1.66;94.70
15750;BME280;7976;52.526;13.326;2023-01-26T00:35:22;101960.88;;;1.64;94.80
15750;BME280;7976;52.526;13.326;2023-01-26T00:37:49;101957.50;;;1.67;94.92
15750;BME280;7976;52.526;13.326;2023-01-26T00:40:16;101961.00;;;1.70;94.66
15750;BME280;7976;52.526;13.326;2023-01-26T00:42:43;101961.78;;;1.68;94.57
15750;BME280;7976;52.526;13.326;2023-01-26T00:45:11;101954.91;;;1.67;94.57
15750;BME280;7976;52.526;13.326;2023-01-26T00:47:38;101952.34;;;1.68;94.49
15750;BME280;7976;52.526;13.326;2023-01-26T00:50:06;101948.06;;;1.67;94.65
15750;BME280;7976;52.526;13.326;2023-01-26T00:52:33;101946.28;;;1.65;94.59
15750;BME280;7976;52.526;13.326;2023-01-26T00:54:59;101948.03;;;1.66;94.61
15750;BME280;7976;52.526;13.326;2023-01-26T00:57:26;101949.69;;;1.62;94.38
15750;BME280;7976;52.526;13.326;2023-01-26T00:59:53;101945.34;;;1.61;94.49
15750;BME280;7976;52.526;13.326;2023-01-26T01:02:21;101945.38;;;1.63;94.60
15750;BME280;7976;52.526;13.326;2023-01-26T01:04:48;101937.72;;;1.66;94.56
15750;BME280;7976;52.526;13.326;2023-01-26T01:07:15;101940.41;;;1.73;94.56
15750;BME280;7976;52.526;13.326;2023-01-26T01:09:44;101939.53;;;1.73;94.57
15750;BME280;7976;52.526;13.326;2023-01-26T01:17:58;101926.72;;;1.76;94.25
15750;BME280;7976;52.526;13.326;2023-01-26T01:20:28;101930.28;;;1.84;94.42
15750;BME280;7976;52.526;13.326;2023-01-26T01:23:15;101935.47;;;1.85;94.16
15750;BME280;7976;52.526;13.326;2023-01-26T01:31:21;101918.16;;;1.78;93.98
15750;BME280;7976;52.526;13.326;2023-01-26T01:34:54;101914.66;;;1.76;94.20
15750;BME280;7976;52.526;13.326;2023-01-26T01:37:49;101911.28;;;1.77;94.39
15750;BME280;7976;52.526;13.326;2023-01-26T01:49:26;101911.25;;;1.76;94.21
15750;BME280;7976;52.526;13.326;2023-01-26T01:55:41;101905.00;;;1.65;94.67
15750;BME280;7976;52.526;13.326;2023-01-26T01:58:13;101909.38;;;1.67;94.55
15750;BME280;7976;52.526;13.326;2023-01-26T02:00:52;101895.56;;;1.65;94.65
15750;BME280;7976;52.526;13.326;2023-01-26T02:03:37;101893.81;;;1.64;94.71
15750;BME280;7976;52.526;13.326;2023-01-26T02:09:16;101879.25;;;1.68;94.55
15750;BME280;7976;52.526;13.326;2023-01-26T02:12:12;101885.41;;;1.74;94.73
15750;BME280;7976;52.526;13.326;2023-01-26T02:14:44;101893.19;;;1.76;94.57
15750;BME280;7976;52.526;13.326;2023-01-26T02:17:24;101882.91;;;1.79;94.64
15750;BME280;7976;52.526;13.326;2023-01-26T02:20:31;101878.56;;;1.76;94.96
15750;BME280;7976;52.526;13.326;2023-01-26T02:30:20;101865.34;;;1.57;94.60
15750;BME280;7976;52.526;13.326;2023-01-26T02:33:22;101848.84;;;1.47;94.66
15750;BME280;7976;52.526;13.326;2023-01-26T02:35:58;101857.41;;;1.48;94.81
15750;BME280;7976;52.526;13.326;2023-01-26T02:38:39;101852.28;;;1.49;94.92
15750;BME280;7976;52.526;13.326;2023-01-26T02:41:18;101847.91;;;1.44;94.64
15750;BME280;7976;52.526;13.326;2023-01-26T02:52:27;101839.34;;;1.46;95.20
15750;BME280;7976;52.526;13.326;2023-01-26T02:58:08;101834.34;;;1.54;95.19
15750;BME280;7976;52.526;13.326;2023-01-26T03:00:39;101846.56;;;1.64;95.35
15750;BME280;7976;52.526;13.326;2023-01-26T03:11:46;101842.09;;;1.55;95.13
15750;BME280;7976;52.526;13.326;2023-01-26T03:14:25;101837.72;;;1.51;95.32
15750;BME280;7976;52.526;13.326;2023-01-26T03:17:20;101843.78;;;1.53;95.72
15750;BME280;7976;52.526;13.326;2023-01-26T03:20:26;101841.97;;;1.49;95.56
15750;BME280;7976;52.526;13.326;2023-01-26T03:23:15;101830.84;;;1.50;95.66
15750;BME280;7976;52.526;13.326;2023-01-26T03:29:11;101835.25;;;1.56;95.43
15750;BME280;7976;52.526;13.326;2023-01-26T03:32:16;101838.78;;;1.61;95.55
15750;BME280;7976;52.526;13.326;2023-01-26T03:34:44;101828.41;;;1.59;95.48
15750;BME280;7976;52.526;13.326;2023-01-26T03:54:40;101840.69;;;1.72;94.74
15750;BME280;7976;52.526;13.326;2023-01-26T03:57:27;101835.50;;;1.71;94.63
15750;BME280;7976;52.526;13.326;2023-01-26T03:59:54;101835.53;;;1.72;94.84
15750;BME280;7976;52.526;13.326;2023-01-26T04:02:25;101839.75;;;1.69;94.49
15750;BME280;7976;52.526;13.326;2023-01-26T04:05:10;101832.03;;;1.70;94.38
15750;BME280;7976;52.526;13.326;2023-01-26T04:08:01;101830.38;;;1.72;94.53
15750;BME280;7976;52.526;13.326;2023-01-26T04:10:54;101826.19;;;1.80;94.58
15750;BME280;7976;52.526;13.326;2023-01-26T04:13:23;101827.91;;;1.81;94.16
15750;BME280;7976;52.526;13.326;2023-01-26T04:16:13;101817.59;;;1.81;94.13
15750;BME280;7976;52.526;13.326;2023-01-26T04:18:57;101816.81;;;1.85;94.24
15750;BME280;7976;52.526;13.326;2023-01-26T04:21:41;101811.63;;;1.82;93.89
15750;BME280;7976;52.526;13.326;2023-01-26T04:24:14;101809.84;;;1.80;93.74
15750;BME280;7976;52.526;13.326;2023-01-26T04:26:43;101806.34;;;1.78;93.81
15750;BME280;7976;52.526;13.326;2023-01-26T04:29:15;101799.41;;;1.72;93.58
15750;BME280;7976;52.526;13.326;2023-01-26T04:31:43;101802.81;;;1.71;93.53
15750;BME280;7976;52.526;13.326;2023-01-26T04:34:14;101811.44;;;1.72;93.52
15750;BME280;7976;52.526;13.326;2023-01-26T04:36:41;101807.13;;;1.71;93.56
15750;BME280;7976;52.526;13.326;2023-01-26T04:39:09;101804.47;;;1.66;93.45
15750;BME280;7976;52.526;13.326;2023-01-26T04:41:39;101799.22;;;1.60;93.83
15750;BME280;7976;52.526;13.326;2023-01-26T04:44:11;101802.63;;;1.59;94.09
15750;BME280;7976;52.526;13.326;2023-01-26T04:46:38;101803.44;;;1.57;93.83
15750;BME280;7976;52.526;13.326;2023-01-26T04:49:05;101794.78;;;1.53;93.90
15750;BME280;7976;52.526;13.326;2023-01-26T04:51:33;101803.50;;;1.60;94.01
15750;BME280;7976;52.526;13.326;2023-01-26T04:54:00;101800.94;;;1.61;93.77
15750;BME280;7976;52.526;13.326;2023-01-26T04:56:30;101796.69;;;1.65;93.99
15750;BME280;7976;52.526;13.326;2023-01-26T04:59:05;101800.97;;;1.64;93.98
15750;BME280;7976;52.526;13.326;2023-01-26T05:01:35;101784.69;;;1.65;93.93
15750;BME280;7976;52.526;13.326;2023-01-26T05:04:06;101790.75;;;1.67;93.84
15750;BME280;7976;52.526;13.326;2023-01-26T05:06:35;101788.09;;;1.64;93.76
15750;BME280;7976;52.526;13.326;2023-01-26T05:09:03;101777.84;;;1.67;93.70
15750;BME280;7976;52.526;13.326;2023-01-26T05:11:31;101780.41;;;1.67;93.71
15750;BME280;7976;52.526;13.326;2023-01-26T05:14:07;101785.50;;;1.64;93.84
15750;BME280;7976;52.526;13.326;2023-01-26T05:16:54;101781.97;;;1.59;93.96
15750;BME280;7976;52.526;13.326;2023-01-26T05:19:26;101782.06;;;1.62;93.96
15750;BME280;7976;52.526;13.326;2023-01-26T05:22:07;101791.53;;;1.63;93.89
15750;BME280;7976;52.526;13.326;2023-01-26T05:24:36;101782.03;;;1.61;93.97
15750;BME280;7976;52.526;13.326;2023-01-26T05:27:26;101787.09;;;1.56;93.67
15750;BME280;7976;52.526;13.326;2023-01-26T05:29:58;101785.41;;;1.57;93.82
15750;BME280;7976;52.526;13.326;2023-01-26T05:32:29;101788.75;;;1.53;93.78
15750;BME280;7976;52.526;13.326;2023-01-26T05:34:56;101785.31;;;1.51;93.82
15750;BME280;7976;52.526;13.326;2023-01-26T05:37:24;101785.31;;;1.51;93.87
15750;BME280;7976;52.526;13.326;2023-01-26T05:39:51;101790.47;;;1.51;93.85
15750;BME280;7976;52.526;13.326;2023-01-26T05:42:20;101790.50;;;1.54;93.87
15750;BME280;7976;52.526;13.326;2023-01-26T05:45:06;101792.25;;;1.55;93.79
15750;BME280;7976;52.526;13.326;2023-01-26T05:47:35;101787.06;;;1.53;93.57
15750;BME280;7976;52.526;13.326;2023-01-26T05:50:02;101783.63;;;1.54;93.83
15750;BME280;7976;52.526;13.326;2023-01-26T05:52:31;101786.16;;;1.51;93.79
15750;BME280;7976;52.526;13.326;2023-01-26T05:54:58;101793.91;;;1.51;93.91
15750;BME280;7976;52.526;13.326;2023-01-26T05:57:25;101799.00;;;1.48;93.71
15750;BME280;7976;52.526;13.326;2023-01-26T05:59:56;101795.47;;;1.43;93.49
15750;BME280;7976;52.526;13.326;2023-01-26T06:02:24;101802.44;;;1.47;93.84
15750;BME280;7976;52.526;13.326;2023-01-26T06:04:53;101793.06;;;1.52;93.51
15750;BME280;7976;52.526;13.326;2023-01-26T06:07:20;101799.16;;;1.57;93.41
15750;BME280;7976;52.526;13.326;2023-01-26T06:10:26;101798.25;;;1.54;93.08
15750;BME280;7976;52.526;13.326;2023-01-26T06:13:01;101798.25;;;1.54;93.16
15750;BME280;7976;52.526;13.326;2023-01-26T06:15:39;101800.00;;;1.58;93.14
15750;BME280;7976;52.526;13.326;2023-01-26T06:18:06;101799.25;;;1.63;92.92
15750;BME280;7976;52.526;13.326;2023-01-26T06:20:35;101804.44;;;1.65;93.01
15750;BME280;7976;52.526;13.326;2023-01-26T06:23:04;101804.44;;;1.65;92.93
15750;BME280;7976;52.526;13.326;2023-01-26T06:25:36;101806.13;;;1.63;92.69
15750;BME280;7976;52.526;13.326;2023-01-26T06:28:04;101802.66;;;1.61;92.64
15750;BME280;7976;52.526;13.326;2023-01-26T06:30:32;101799.16;;;1.56;92.57
15750;BME280;7976;52.526;13.326;2023-01-26T06:33:03;101811.19;;;1.57;92.78
15750;BME280;7976;52.526;13.326;2023-01-26T06:35:35;101800.91;;;1.60;93.32
15750;BME280;7976;52.526;13.326;2023-01-26T06:38:03;101799.97;;;1.55;92.96
15750;BME280;7976;52.526;13.326;2023-01-26T06:40:30;101798.13;;;1.48;92.94
15750;BME280;7976;52.526;13.326;2023-01-26T06:42:57;101797.19;;;1.43;93.20
15750;BME280;7976;52.526;13.326;2023-01-26T06:45:25;101801.41;;;1.39;92.95
15750;BME280;7976;52.526;13.326;2023-01-26T06:47:52;101798.78;;;1.36;93.23
15750;BME280;7976;52.526;13.326;2023-01-26T06:50:25;101809.22;;;1.42;93.34
15750;BME280;7976;52.526;13.326;2023-01-26T06:52:59;101815.25;;;1.44;93.44
15750;BME280;7976;52.526;13.326;2023-01-26T06:55:40;101804.94;;;1.44;93.19
15750;BME280;7976;52.526;13.326;2023-01-26T06:58:27;101814.47;;;1.48;93.57
15750;BME280;7976;52.526;13.326;2023-01-26T07:01:23;101807.69;;;1.53;93.63
15750;BME280;7976;52.526;13.326;2023-01-26T07:03:53;101805.97;;;1.52;93.33
15750;BME280;7976;52.526;13.326;2023-01-26T07:06:20;101796.47;;;1.51;93.43
15750;BME280;7976;52.526;13.326;2023-01-26T07:08:48;101794.69;;;1.46;93.00
15750;BME280;7976;52.526;13.326;2023-01-26T07:11:15;101798.81;;;1.38;93.16
15750;BME280;7976;52.526;13.326;2023-01-26T07:13:46;101799.56;;;1.31;93.04
15750;BME280;7976;52.526;13.326;2023-01-26T07:16:15;101791.75;;;1.26;93.21
15750;BME280;7976;52.526;13.326;2023-01-26T07:18:42;101795.22;;;1.28;93.54
15750;BME280;7976;52.526;13.326;2023-01-26T07:21:12;101802.19;;;1.34;93.50
15750;BME280;7976;52.526;13.326;2023-01-26T07:23:40;101801.28;;;1.30;93.05
15750;BME280;7976;52.526;13.326;2023-01-26T07:26:08;101807.22;;;1.26;93.00
15750;BME280;7976;52.526;13.326;2023-01-26T07:28:35;101809.84;;;1.29;93.27
15750;BME280;7976;52.526;13.326;2023-01-26T07:31:04;101805.63;;;1.34;93.32
15750;BME280;7976;52.526;13.326;2023-01-26T07:33:32;101809.97;;;1.35;93.14
15750;BME280;7976;52.526;13.326;2023-01-26T07:36:00;101807.44;;;1.38;93.16
15750;BME280;7976;52.526;13.326;2023-01-26T07:38:28;101810.88;;;1.39;92.95
15750;BME280;7976;52.526;13.326;2023-01-26T07:40:56;101804.81;;;1.37;92.74
15750;BME280;7976;52.526;13.326;2023-01-26T07:43:24;101809.97;;;1.35;92.57
15750;BME280;7976;52.526;13.326;2023-01-26T07:45:53;101813.31;;;1.31;92.70
15750;BME280;7976;52.526;13.326;2023-01-26T07:48:22;101806.41;;;1.28;92.54
15750;BME280;7976;52.526;13.326;2023-01-26T07:50:50;101809.75;;;1.23;92.52
15750;BME280;7976;52.526;13.326;2023-01-26T07:53:18;101811.44;;;1.22;92.59
15750;BME280;7976;52.526;13.326;2023-01-26T07:55:47;101802.84;;;1.22;92.22
15750;BME280;7976;52.526;13.326;2023-01-26T07:58:15;101804.59;;;1.24;92.73
15750;BME280;7976;52.526;13.326;2023-01-26T08:00:44;101810.72;;;1.31;92.96
15750;BME280;7976;52.526;13.326;2023-01-26T08:03:12;101816.81;;;1.35;92.45
15750;BME280;7976;52.526;13.326;2023-01-26T08:05:39;101822.81;;;1.34;92.51
15750;BME280;7976;52.526;13.326;2023-01-26T08:08:08;101822.69;;;1.27;92.00
15750;BME280;7976;52.526;13.326;2023-01-26T08:10:35;101826.13;;;1.26;91.94
15750;BME280;7976;52.526;13.326;2023-01-26T08:13:02;101820.91;;;1.22;92.23
15750;BME280;7976;52.526;13.326;2023-01-26T08:15:29;101826.06;;;1.22;92.03
15750;BME280;7976;52.526;13.326;2023-01-26T08:17:57;101825.91;;;1.14;91.79
15750;BME280;7976;52.526;13.326;2023-01-26T08:20:28;101826.75;;;1.13;91.96
15750;BME280;7976;52.526;13.326;2023-01-26T08:22:55;101825.09;;;1.17;91.93
15750;BME280;7976;52.526;13.326;2023-01-26T08:25:22;101837.16;;;1.19;91.96
15750;BME280;7976;52.526;13.326;2023-01-26T08:27:49;101832.84;;;1.18;91.82
15750;BME280;7976;52.526;13.326;2023-01-26T08:30:17;101836.28;;;1.19;91.84
15750;BME280;7976;52.526;13.326;2023-01-26T08:32:43;101836.34;;;1.20;91.93
15750;BME280;7976;52.526;13.326;2023-01-26T08:35:12;101826.88;;;1.21;91.61
15750;BME280;7976;52.526;13.326;2023-01-26T08:37:38;101825.97;;;1.19;91.53
15750;BME280;7976;52.526;13.326;2023-01-26T08:40:07;101825.16;;;1.20;91.49
15750;BME280;7976;52.526;13.326;2023-01-26T08:42:34;101822.53;;;1.17;91.35
15750;BME280;7976;52.526;13.326;2023-01-26T08:45:01;101827.66;;;1.15;91.27
15750;BME280;7976;52.526;13.326;2023-01-26T08:47:28;101827.53;;;1.11;91.12
15750;BME280;7976;52.526;13.326;2023-01-26T08:49:55;101819.88;;;1.14;91.21
15750;BME280;7976;52.526;13.326;2023-01-26T08:52:23;101816.50;;;1.16;91.02
15750;BME280;7976;52.526;13.326;2023-01-26T08:54:50;101815.63;;;1.17;90.86
15750;BME280;7976;52.526;13.326;2023-01-26T08:57:17;101819.88;;;1.14;90.84
15750;BME280;7976;52.526;13.326;2023-01-26T08:59:44;101818.97;;;1.10;90.45
15750;BME280;7976;52.526;13.326;2023-01-26T09:02:10;101828.44;;;1.13;90.70
15750;BME280;7976;52.526;13.326;2023-01-26T09:04:37;101826.84;;;1.19;90.93
15750;BME280;7976;52.526;13.326;2023-01-26T09:07:04;101826.91;;;1.24;90.69
15750;BME280;7976;52.526;13.326;2023-01-26T09:09:32;101827.78;;;1.23;90.82
15750;BME280;7976;52.526;13.326;2023-01-26T09:11:59;101824.25;;;1.18;90.53
15750;BME280;7976;52.526;13.326;2023-01-26T09:14:26;101826.84;;;1.19;90.54
15750;BME280;7976;52.526;13.326;2023-01-26T09:16:53;101836.41;;;1.25;90.67
15750;BME280;7976;52.526;13.326;2023-01-26T09:19:21;101845.88;;;1.27;90.51
15750;BME280;7976;52.526;13.326;2023-01-26T09:21:51;101836.50;;;1.31;90.71
15750;BME280;7976;52.526;13.326;2023-01-26T09:24:18;101846.06;;;1.37;90.43
15750;BME280;7976;52.526;13.326;2023-01-26T09:26:47;101840.88;;;1.35;90.48
15750;BME280;7976;52.526;13.326;2023-01-26T09:29:15;101835.78;;;1.38;90.41
15750;BME280;7976;52.526;13.326;2023-01-26T09:31:42;101835.72;;;1.35;90.25
15750;BME280;7976;52.526;13.326;2023-01-26T09:34:09;101836.56;;;1.34;90.10
15750;BME280;7976;52.526;13.326;2023-01-26T09:36:35;101830.44;;;1.27;89.96
15750;BME280;7976;52.526;13.326;2023-01-26T09:39:02;101838.13;;;1.26;90.14
15750;BME280;7976;52.526;13.326;2023-01-26T09:42:01;101832.13;;;1.25;90.46
15750;BME280;7976;52.526;13.326;2023-01-26T09:44:38;101842.50;;;1.30;90.43
15750;BME280;7976;52.526;13.326;2023-01-26T09:47:19;101837.38;;;1.32;90.53
15750;BME280;7976;52.526;13.326;2023-01-26T09:49:59;101838.09;;;1.23;90.24
15750;BME280;7976;52.526;13.326;2023-01-26T09:52:32;101832.88;;;1.20;90.57
15750;BME280;7976;52.526;13.326;2023-01-26T09:55:04;101837.16;;;1.19;90.73
15750;BME280;7976;52.526;13.326;2023-01-26T09:57:38;101831.06;;;1.16;90.72
15750;BME280;7976;52.526;13.326;2023-01-26T10:00:16;101831.84;;;1.10;90.61
15750;BME280;7976;52.526;13.326;2023-01-26T10:03:07;101842.19;;;1.12;90.96
15750;BME280;7976;52.526;13.326;2023-01-26T10:05:44;101840.47;;;1.14;91.08
15750;BME280;7976;52.526;13.326;2023-01-26T10:08:34;101833.69;;;1.17;90.94
15750;BME280;7976;52.526;13.326;2023-01-26T10:11:06;101821.66;;;1.18;90.78
15750;BME280;7976;52.526;13.326;2023-01-26T10:13:52;101824.28;;;1.21;91.13
15750;BME280;7976;52.526;13.326;2023-01-26T10:16:21;101826.97;;;1.25;91.11
15750;BME280;7976;52.526;13.326;2023-01-26T10:18:57;101823.59;;;1.29;91.00
15750;BME280;7976;52.526;13.326;2023-01-26T10:21:32;101814.97;;;1.27;90.87
15750;BME280;7976;52.526;13.326;2023-01-26T10:24:01;101819.13;;;1.21;90.86
15750;BME280;7976;52.526;13.326;2023-01-26T10:26:32;101811.31;;;1.15;90.79
15750;BME280;7976;52.526;13.326;2023-01-26T10:29:02;101805.28;;;1.14;91.06
15750;BME280;7976;52.526;13.326;2023-01-26T10:31:32;101806.13;;;1.13;91.06
15750;BME280;7976;52.526;13.326;2023-01-26T10:34:09;101800.06;;;1.10;91.21
15750;BME280;7976;52.526;13.326;2023-01-26T10:36:40;101796.63;;;1.11;91.40
15750;BME280;7976;52.526;13.326;2023-01-26T10:39:10;101783.94;;;1.21;91.67
15750;BME280;7976;52.526;13.326;2023-01-26T10:41:38;101776.22;;;1.21;91.44
15750;BME280;7976;52.526;13.326;2023-01-26T10:44:23;101771.97;;;1.23;91.22
15750;BME280;7976;52.526;13.326;2023-01-26T10:47:05;101781.38;;;1.23;91.54
15750;BME280;7976;52.526;13.326;2023-01-26T10:49:32;101771.91;;;1.20;91.34
15750;BME280;7976;52.526;13.326;2023-01-26T10:52:14;101764.25;;;1.25;91.55
15750;BME280;7976;52.526;13.326;2023-01-26T10:54:42;101760.94;;;1.32;91.46
15750;BME280;7976;52.526;13.326;2023-01-26T10:57:18;101756.59;;;1.29;91.13
15750;BME280;7976;52.526;13.326;2023-01-26T10:59:54;101757.47;;;1.30;91.33
15750;BME280;7976;52.526;13.326;2023-01-26T11:02:26;101764.28;;;1.28;91.33
15750;BME280;7976;52.526;13.326;2023-01-26T11:05:19;101767.72;;;1.27;91.17
15750;BME280;7976;52.526;13.326;2023-01-26T11:07:48;101766.00;;;1.27;91.51
15750;BME280;7976;52.526;13.326;2023-01-26T11:10:21;101765.22;;;1.32;91.63
15750;BME280;7976;52.526;13.326;2023-01-26T11:12:49;101764.34;;;1.31;91.27
15750;BME280;7976;52.526;13.326;2023-01-26T11:15:20;101765.19;;;1.30;91.01
15750;BME280;7976;52.526;13.326;2023-01-26T11:17:55;101758.38;;;1.34;91.12
15750;BME280;7976;52.526;13.326;2023-01-26T11:20:44;101750.63;;;1.31;91.30
15750;BME280;7976;52.526;13.326;2023-01-26T11:23:22;101760.03;;;1.28;91.38
15750;BME280;7976;52.526;13.326;2023-01-26T11:26:23;101748.88;;;1.31;91.69
15750;BME280;7976;52.526;13.326;2023-01-26T11:29:08;101750.75;;;1.40;91.43
15750;BME280;7976;52.526;13.326;2023-01-26T11:31:51;101759.31;;;1.37;91.01
15750;BME280;7976;52.526;13.326;2023-01-26T11:34:34;101752.34;;;1.32;91.06
15750;BME280;7976;52.526;13.326;2023-01-26T11:37:38;101750.63;;;1.32;91.08
15750;BME280;7976;52.526;13.326;2023-01-26T11:40:27;101746.25;;;1.28;91.05
15750;BME280;7976;52.526;13.326;2023-01-26T11:43:14;101740.19;;;1.26;90.93
15750;BME280;7976;52.526;13.326;2023-01-26T11:46:14;101742.75;;;1.24;91.01
15750;BME280;7976;52.526;13.326;2023-01-26T11:49:02;101739.38;;;1.27;90.86
15750;BME280;7976;52.526;13.326;2023-01-26T11:51:49;101743.81;;;1.36;90.98
15750;BME280;7976;52.526;13.326;2023-01-26T11:54:57;101733.63;;;1.43;90.58
15750;BME280;7976;52.526;13.326;2023-01-26T11:57:38;101726.84;;;1.50;90.48
15750;BME280;7976;52.526;13.326;2023-01-26T12:00:16;101719.97;;;1.50;90.15
15750;BME280;7976;52.526;13.326;2023-01-26T12:02:58;101720.81;;;1.49;90.21
15750;BME280;7976;52.526;13.326;2023-01-26T12:05:35;101713.91;;;1.47;90.42
15750;BME280;7976;52.526;13.326;2023-01-26T12:08:11;101710.44;;;1.45;90.05
15750;BME280;7976;52.526;13.326;2023-01-26T12:10:48;101711.28;;;1.42;89.92
15750;BME280;7976;52.526;13.326;2023-01-26T12:13:29;101700.06;;;1.40;90.00
15750;BME280;7976;52.526;13.326;2023-01-26T12:16:06;101703.63;;;1.48;90.12
15750;BME280;7976;52.526;13.326;2023-01-26T12:18:43;101708.03;;;1.55;89.96
15750;BME280;7976;52.526;13.326;2023-01-26T12:21:16;101696.03;;;1.57;89.60
15750;BME280;7976;52.526;13.326;2023-01-26T12:23:54;101689.22;;;1.62;89.47
15750;BME280;7976;52.526;13.326;2023-01-26T12:26:27;101691.06;;;1.71;89.40
15750;BME280;7976;52.526;13.326;2023-01-26T12:29:06;101688.53;;;1.74;88.77
15750;BME280;7976;52.526;13.326;2023-01-26T12:31:47;101686.75;;;1.71;88.44
15750;BME280;7976;52.526;13.326;2023-01-26T12:34:15;101673.06;;;1.75;88.41
15750;BME280;7976;52.526;13.326;2023-01-26T12:36:51;101670.50;;;1.75;88.06
15750;BME280;7976;52.526;13.326;2023-01-26T12:39:32;101673.97;;;1.77;87.79
15750;BME280;7976;52.526;13.326;2023-01-26T12:42:20;101666.16;;;1.74;87.67
15750;BME280;7976;52.526;13.326;2023-01-26T12:44:55;101671.38;;;1.77;87.63
15750;BME280;7976;52.526;13.326;2023-01-26T12:47:31;101664.50;;;1.79;87.49
15750;BME280;7976;52.526;13.326;2023-01-26T12:50:05;101661.94;;;1.79;87.29
15750;BME280;7976;52.526;13.326;2023-01-26T12:52:43;101651.63;;;1.79;86.92
15750;BME280;7976;52.526;13.326;2023-01-26T12:55:19;101656.00;;;1.85;87.13
15750;BME280;7976;52.526;13.326;2023-01-26T12:57:53;101660.25;;;1.81;86.75
15750;BME280;7976;52.526;13.326;2023-01-26T13:00:24;101660.19;;;1.75;86.60
15750;BME280;7976;52.526;13.326;2023-01-26T13:02:58;101662.66;;;1.69;86.41
15750;BME280;7976;52.526;13.326;2023-01-26T13:05:29;101666.88;;;1.63;86.35
15750;BME280;7976;52.526;13.326;2023-01-26T13:07:58;101666.00;;;1.61;86.62
15750;BME280;7976;52.526;13.326;2023-01-26T13:10:28;101668.59;;;1.62;86.89
15750;BME280;7976;52.526;13.326;2023-01-26T13:13:29;101668.63;;;1.64;86.50
15750;BME280;7976;52.526;13.326;2023-01-26T13:16:32;101675.44;;;1.60;86.45
15750;BME280;7976;52.526;13.326;2023-01-26T13:19:01;101680.69;;;1.66;86.78
15750;BME280;7976;52.526;13.326;2023-01-26T13:21:42;101688.38;;;1.65;86.39
15750;BME280;7976;52.526;13.326;2023-01-26T13:24:46;101685.84;;;1.66;86.49
15750;BME280;7976;52.526;13.326;2023-01-26T13:27:30;101685.84;;;1.66;86.44
15750;BME280;7976;52.526;13.326;2023-01-26T13:29:57;101687.56;;;1.66;86.61
15750;BME280;7976;52.526;13.326;2023-01-26T13:33:08;101692.78;;;1.70;86.63
15750;BME280;7976;52.526;13.326;2023-01-26T13:35:37;101682.53;;;1.76;86.69
15750;BME280;7976;52.526;13.326;2023-01-26T13:38:14;101695.44;;;1.76;86.24
15750;BME280;7976;52.526;13.326;2023-01-26T13:40:47;101691.06;;;1.71;86.37
15750;BME280;7976;52.526;13.326;2023-01-26T13:43:27;101689.28;;;1.65;86.55
15750;BME280;7976;52.526;13.326;2023-01-26T13:46:07;101700.56;;;1.75;86.52
15750;BME280;7976;52.526;13.326;2023-01-26T13:48:45;101704.78;;;1.70;86.81
15750;BME280;7976;52.526;13.326;2023-01-26T13:51:16;101709.94;;;1.68;86.68
15750;BME280;7976;52.526;13.326;2023-01-26T13:53:52;101704.75;;;1.67;86.67
15750;BME280;7976;52.526;13.326;2023-01-26T13:56:32;101704.75;;;1.65;86.63
15750;BME280;7976;52.526;13.326;2023-01-26T13:59:10;101705.63;;;1.66;87.17
15750;BME280;7976;52.526;13.326;2023-01-26T14:01:45;101704.78;;;1.68;86.96
15750;BME280;7976;52.526;13.326;2023-01-26T14:04:16;101704.75;;;1.65;86.85
15750;BME280;7976;52.526;13.326;2023-01-26T14:06:48;101715.06;;;1.65;87.08
15750;BME280;7976;52.526;13.326;2023-01-26T14:09:17;101703.00;;;1.64;87.14
15750;BME280;7976;52.526;13.326;2023-01-26T14:11:55;101709.03;;;1.65;87.31
15750;BME280;7976;52.526;13.326;2023-01-26T14:14:26;101701.28;;;1.65;87.31
15750;BME280;7976;52.526;13.326;2023-01-26T14:16:57;101702.97;;;1.63;87.18
15750;BME280;7976;52.526;13.326;2023-01-26T14:19:25;101703.88;;;1.65;87.42
15750;BME280;7976;52.526;13.326;2023-01-26T14:21:55;101709.88;;;1.62;87.32
15750;BME280;7976;52.526;13.326;2023-01-26T14:24:32;101707.16;;;1.55;87.41
15750;BME280;7976;52.526;13.326;2023-01-26T14:27:01;101707.13;;;1.52;87.53
15750;BME280;7976;52.526;13.326;2023-01-26T14:29:29;101707.91;;;1.49;87.58
15750;BME280;7976;52.526;13.326;2023-01-26T14:31:58;101700.16;;;1.46;87.46
15750;BME280;7976;52.526;13.326;2023-01-26T14:34:29;101702.72;;;1.46;87.67
15750;BME280;7976;52.526;13.326;2023-01-26T14:37:11;101710.44;;;1.45;87.37
15750;BME280;7976;52.526;13.326;2023-01-26T14:39:40;101706.00;;;1.36;87.55
15750;BME280;7976;52.526;13.326;2023-01-26T14:42:13;101715.31;;;1.28;87.46
15750;BME280;7976;52.526;13.326;2023-01-26T14:44:40;101716.09;;;1.24;87.91
15750;BME280;7976;52.526;13.326;2023-01-26T14:47:16;101710.13;;;1.25;88.01
15750;BME280;7976;52.526;13.326;2023-01-26T14:49:50;101699.88;;;1.28;88.19
15750;BME280;7976;52.526;13.326;2023-01-26T14:52:23;101711.13;;;1.33;88.13